Time;durP1;ratioP1;P1;durP2;ratioP2;P2;SDS_P1;SDS_P2;PMS_P1;PMS_P2;Temp;Humidity;BMP_temperature;BMP_pressure;BME280_temperature;BME280_humidity;BME280_pressure;Samples;Min_cycle;Max_cycle;Signal;HPM_P1;HPM_P2
2022/05/01 00:01:41;;;;;;;2.30;2.10;;;;;;;7.41;100.00;91257.59;5012511;28;20064;-66
2022/05/01 00:04:07;;;;;;;1.73;1.63;;;;;;;7.50;100.00;91274.44;5012336;28;20029;-66
2022/05/01 00:06:33;;;;;;;1.45;1.35;;;;;;;7.63;100.00;91280.94;5012634;28;20037;-66
2022/05/01 00:09:00;;;;;;;1.55;1.48;;;;;;;7.53;100.00;91281.84;5012350;28;20026;-66
2022/05/01 00:11:26;;;;;;;1.17;1.17;;;;;;;7.36;100.00;91270.91;5012347;28;20034;-65
2022/05/01 00:13:52;;;;;;;1.50;1.40;;;;;;;7.29;100.00;91244.78;5012330;28;20026;-65
2022/05/01 00:16:17;;;;;;;1.33;1.27;;;;;;;7.33;100.00;91253.72;5012341;28;20044;-65
2022/05/01 00:18:44;;;;;;;1.20;1.20;;;;;;;7.36;100.00;91244.44;5012278;28;20136;-65
2022/05/01 00:21:10;;;;;;;1.42;1.35;;;;;;;7.33;100.00;91248.44;5011880;28;20480;-65
2022/05/01 00:23:36;;;;;;;1.00;1.00;;;;;;;7.30;100.00;91243.69;5012246;28;20036;-66
2022/05/01 00:26:03;;;;;;;1.35;1.25;;;;;;;7.33;100.00;91243.13;5012032;28;20042;-66
2022/05/01 00:28:31;;;;;;;1.50;1.40;;;;;;;7.33;100.00;91234.41;5012253;28;20029;-66
2022/05/01 00:30:56;;;;;;;1.33;1.23;;;;;;;7.33;100.00;91218.53;5012110;28;20026;-66
2022/05/01 00:38:49;;;;;;;1.83;1.67;;;;;;;7.60;100.00;91228.56;5011992;28;19928;-66
2022/05/01 00:41:15;;;;;;;1.73;1.63;;;;;;;7.76;100.00;91243.97;5012148;28;20037;-66
2022/05/01 00:44:00;;;;;;;2.03;1.92;;;;;;;7.86;100.00;91256.31;5011826;28;20025;-66
2022/05/01 00:46:30;;;;;;;1.70;1.60;;;;;;;8.03;100.00;91245.22;5011422;28;20029;-66
2022/05/01 00:48:56;;;;;;;2.10;1.90;;;;;;;7.90;100.00;91238.78;5011354;28;20021;-66
2022/05/01 00:51:22;;;;;;;1.10;1.10;;;;;;;7.86;100.00;91223.72;5011835;28;20112;-66
2022/05/01 00:53:51;;;;;;;1.17;1.17;;;;;;;7.83;100.00;91230.38;5011754;28;20033;-65
2022/05/01 00:56:18;;;;;;;2.55;2.35;;;;;;;7.86;100.00;91226.38;5011630;28;20021;-66
2022/05/01 00:58:46;;;;;;;1.20;1.20;;;;;;;7.80;100.00;91223.00;5011477;28;20132;-66
2022/05/01 01:01:13;;;;;;;1.90;1.80;;;;;;;7.75;100.00;91220.44;5011619;28;20025;-66
2022/05/01 01:03:38;;;;;;;1.48;1.38;;;;;;;7.78;100.00;91220.66;5011255;28;20052;-66
2022/05/01 01:06:04;;;;;;;1.88;1.67;;;;;;;7.69;100.00;91216.25;5011607;28;20484;-67
2022/05/01 01:08:29;;;;;;;2.22;1.60;;;;;;;7.72;100.00;91220.97;5011658;28;20087;-67
2022/05/01 01:10:55;;;;;;;2.35;1.92;;;;;;;7.74;100.00;91224.16;5011421;28;20053;-66
2022/05/01 01:13:27;;;;;;;1.40;1.30;;;;;;;7.62;100.00;91227.19;5011482;28;20025;-66
2022/05/01 01:15:54;;;;;;;2.20;2.05;;;;;;;7.72;100.00;91215.69;5011335;28;20030;-66
2022/05/01 01:18:20;;;;;;;2.08;1.90;;;;;;;7.49;100.00;91207.50;5011126;28;20038;-67
2022/05/01 01:20:45;;;;;;;1.70;1.60;;;;;;;7.34;100.00;91205.00;5011052;28;20037;-66
2022/05/01 01:23:11;;;;;;;1.08;1.08;;;;;;;7.40;100.00;91197.78;5011194;28;20411;-65
2022/05/01 01:25:37;;;;;;;1.77;1.67;;;;;;;7.26;100.00;91197.72;5011050;28;20052;-66
2022/05/01 01:28:05;;;;;;;2.35;2.15;;;;;;;7.28;100.00;91203.50;5011300;28;20030;-65
2022/05/01 01:33:20;;;;;;;1.83;1.73;;;;;;;7.29;100.00;91194.50;5011231;28;20083;-65
2022/05/01 01:35:49;;;;;;;1.67;1.58;;;;;;;7.39;100.00;91202.31;5011256;28;20030;-66
2022/05/01 01:38:17;;;;;;;1.95;1.85;;;;;;;7.36;100.00;91197.56;5011201;28;20041;-65
2022/05/01 01:40:47;;;;;;;1.77;1.67;;;;;;;7.41;100.00;91192.22;5018050;28;20022;-66
2022/05/01 01:43:18;;;;;;;2.25;1.35;;;;;;;7.45;100.00;91209.13;5021167;28;20109;-66
2022/05/01 01:45:44;;;;;;;1.30;1.30;;;;;;;7.35;100.00;91209.25;5011014;28;20026;-66
2022/05/01 01:48:17;;;;;;;1.17;1.17;;;;;;;7.32;100.00;91212.44;5010896;28;20044;-66
2022/05/01 01:50:44;;;;;;;1.48;1.38;;;;;;;7.25;100.00;91205.91;5010796;28;20032;-65
2022/05/01 01:53:10;;;;;;;1.15;1.15;;;;;;;7.21;100.00;91214.41;5010284;28;20034;-65
2022/05/01 01:55:38;;;;;;;1.60;1.50;;;;;;;6.94;100.00;91223.94;5011021;28;20030;-65
2022/05/01 01:58:05;;;;;;;1.50;1.40;;;;;;;6.86;100.00;91220.84;5011879;28;20026;-65
2022/05/01 02:00:31;;;;;;;1.80;1.70;;;;;;;6.83;100.00;91213.47;5014982;28;20029;-65
2022/05/01 02:03:03;;;;;;;1.40;1.27;;;;;;;6.71;100.00;91222.81;5015000;28;20030;-65
2022/05/01 02:05:28;;;;;;;2.75;1.48;;;;;;;6.58;100.00;91216.31;5015020;28;20029;-65
2022/05/01 02:07:54;;;;;;;1.45;1.38;;;;;;;6.50;100.00;91216.94;5014888;28;20062;-65
2022/05/01 02:10:20;;;;;;;1.10;1.10;;;;;;;6.21;100.00;91211.59;5014039;28;20049;-65
2022/05/01 02:12:46;;;;;;;1.15;1.13;;;;;;;6.17;100.00;91216.63;5014903;28;20060;-65
2022/05/01 02:15:11;;;;;;;1.13;1.13;;;;;;;6.04;100.00;91217.25;5014892;28;20030;-65
2022/05/01 02:17:40;;;;;;;8.18;2.50;;;;;;;5.95;100.00;91218.88;5014573;28;20030;-65
2022/05/01 02:20:07;;;;;;;1.80;1.70;;;;;;;5.84;100.00;91210.19;4997343;28;20037;-65
2022/05/01 02:22:32;;;;;;;1.88;1.48;;;;;;;5.76;100.00;91208.13;5014680;28;20047;-65
2022/05/01 02:24:58;;;;;;;1.95;1.85;;;;;;;5.81;100.00;91205.44;5014546;28;20046;-65
2022/05/01 02:27:23;;;;;;;1.15;1.15;;;;;;;5.84;100.00;91207.56;5014704;28;20091;-65
2022/05/01 02:29:49;;;;;;;1.08;1.05;;;;;;;6.00;100.00;91197.72;5014611;28;20037;-66
2022/05/01 02:32:14;;;;;;;3.10;1.85;;;;;;;6.11;100.00;91188.66;5014701;28;20030;-65
2022/05/01 02:34:40;;;;;;;0.90;0.90;;;;;;;6.18;100.00;91197.06;5014657;28;20030;-66
2022/05/01 02:37:06;;;;;;;4.88;1.10;;;;;;;6.06;100.00;91188.69;5014622;28;20030;-65
2022/05/01 02:39:33;;;;;;;1.27;1.23;;;;;;;6.03;100.00;91181.34;5014387;28;20120;-65
2022/05/01 02:41:58;;;;;;;1.33;1.30;;;;;;;6.03;100.00;91183.97;5014378;28;20108;-65
2022/05/01 02:44:24;;;;;;;1.00;1.00;;;;;;;6.22;100.00;91179.59;5014406;28;20133;-65
2022/05/01 02:46:49;;;;;;;1.08;1.08;;;;;;;6.22;100.00;91179.59;5014431;28;20030;-66
2022/05/01 02:49:15;;;;;;;1.35;1.05;;;;;;;6.33;100.00;91171.63;5014225;28;20025;-66
2022/05/01 02:51:40;;;;;;;1.55;1.45;;;;;;;6.41;100.00;91176.28;5014260;28;20030;-66
2022/05/01 02:54:06;;;;;;;1.85;1.30;;;;;;;6.56;100.00;91170.88;5014260;28;20029;-66
2022/05/01 02:56:32;;;;;;;2.15;1.38;;;;;;;6.64;100.00;91177.44;5014211;28;20088;-66
2022/05/01 02:58:57;;;;;;;1.00;1.00;;;;;;;6.69;100.00;91186.09;5014038;28;20053;-66
2022/05/01 03:01:23;;;;;;;2.05;1.95;;;;;;;6.73;100.00;91173.09;5014123;28;20483;-67
2022/05/01 03:03:50;;;;;;;1.25;1.25;;;;;;;6.92;100.00;91189.84;5014119;28;20034;-67
2022/05/01 03:06:16;;;;;;;3.88;3.53;;;;;;;6.95;100.00;91188.50;5014012;28;20443;-67
2022/05/01 03:08:41;;;;;;;1.45;1.35;;;;;;;7.11;100.00;91180.13;5013629;28;20026;-67
2022/05/01 03:11:07;;;;;;;1.13;1.10;;;;;;;7.10;100.00;91189.16;5013945;28;20407;-67
2022/05/01 03:13:32;;;;;;;1.77;1.27;;;;;;;7.00;100.00;91183.16;5013912;28;20026;-67
2022/05/01 03:15:58;;;;;;;1.27;1.25;;;;;;;7.05;100.00;91194.47;5013749;28;20017;-67
2022/05/01 03:23:52;;;;;;;1.25;1.25;;;;;;;6.94;100.00;91197.50;5013480;28;20411;-66
2022/05/01 03:26:18;;;;;;;1.42;1.33;;;;;;;6.72;100.00;91190.03;5013879;28;20034;-66
2022/05/01 03:28:44;;;;;;;1.13;1.13;;;;;;;6.32;100.00;91184.03;5013493;28;20033;-66
2022/05/01 03:31:11;;;;;;;1.50;1.35;;;;;;;5.86;100.00;91180.88;5013443;28;20085;-66
2022/05/01 03:33:37;;;;;;;2.17;1.63;;;;;;;5.80;100.00;91195.16;5013255;28;20466;-66
2022/05/01 03:36:06;;;;;;;1.48;1.38;;;;;;;5.87;100.00;91196.44;5013673;28;20105;-66
2022/05/01 03:38:34;;;;;;;1.30;1.20;;;;;;;5.98;100.00;91194.53;5013294;28;20041;-67
2022/05/01 03:41:00;;;;;;;1.15;1.08;;;;;;;5.91;100.00;91199.34;5013288;28;20038;-66
2022/05/01 03:43:25;;;;;;;1.42;1.33;;;;;;;6.05;100.00;91221.47;5013362;28;20036;-66
2022/05/01 03:45:51;;;;;;;0.80;0.80;;;;;;;6.18;100.00;91215.56;5013273;28;20025;-66
2022/05/01 03:48:16;;;;;;;3.80;1.27;;;;;;;6.22;100.00;91216.59;5013222;28;20025;-66
2022/05/01 03:50:42;;;;;;;2.05;1.33;;;;;;;6.21;100.00;91225.56;5013082;28;20546;-67
2022/05/01 03:53:07;;;;;;;1.20;1.13;;;;;;;6.23;100.00;91220.00;5016841;28;20033;-67
2022/05/01 03:55:33;;;;;;;0.93;0.93;;;;;;;6.25;100.00;91228.44;5027528;28;20034;-66
2022/05/01 03:58:00;;;;;;;1.08;1.08;;;;;;;5.93;100.00;91221.00;5016450;28;20029;-65
2022/05/01 04:00:27;;;;;;;1.13;1.13;;;;;;;5.91;100.00;91236.31;5012965;28;20026;-66
2022/05/01 04:02:53;;;;;;;0.98;0.98;;;;;;;5.84;100.00;91231.31;5012966;28;20054;-66
2022/05/01 04:05:19;;;;;;;1.40;1.30;;;;;;;5.70;100.00;91231.13;5012850;28;20065;-66
2022/05/01 04:07:45;;;;;;;1.00;1.00;;;;;;;5.51;100.00;91235.41;5012673;28;20488;-66
2022/05/01 04:10:11;;;;;;;1.30;1.20;;;;;;;5.61;100.00;91237.22;5012588;28;20042;-66
2022/05/01 04:12:42;;;;;;;1.67;1.60;;;;;;;5.65;100.00;91233.75;5012527;28;20033;-66
2022/05/01 04:15:09;;;;;;;1.88;1.77;;;;;;;5.80;100.00;91229.47;5012660;28;20034;-67
2022/05/01 04:17:41;;;;;;;1.00;1.00;;;;;;;6.02;100.00;91227.28;5012836;28;20103;-66
2022/05/01 04:20:14;;;;;;;1.63;1.52;;;;;;;6.24;100.00;91227.66;4994349;28;20025;-66
2022/05/01 04:22:40;;;;;;;0.87;0.87;;;;;;;6.40;100.00;91227.56;5012226;28;20025;-66
2022/05/01 04:25:13;;;;;;;1.33;1.33;;;;;;;6.58;100.00;91230.31;5012277;28;20107;-66
2022/05/01 04:27:39;;;;;;;;;;;;;;;6.75;100.00;91219.34;5012348;28;20042;-66
2022/05/01 04:30:04;;;;;;;1.30;1.27;;;;;;;6.86;100.00;91226.13;5012347;28;19963;-66
2022/05/01 04:32:30;;;;;;;1.77;1.65;;;;;;;7.07;100.00;91225.94;5012291;28;20311;-65
2022/05/01 04:34:55;;;;;;;1.52;1.42;;;;;;;7.28;100.00;91221.25;5012411;28;20040;-65
2022/05/01 04:37:21;;;;;;;1.30;1.20;;;;;;;7.61;100.00;91219.53;5012349;28;20037;-65
2022/05/01 04:39:48;;;;;;;1.15;1.15;;;;;;;7.96;100.00;91220.97;5012267;28;20041;-66
2022/05/01 04:42:15;;;;;;;1.00;1.00;;;;;;;8.13;100.00;91220.47;5012360;28;20033;-66
2022/05/01 04:44:43;;;;;;;2.72;2.45;;;;;;;8.32;100.00;91219.38;5012122;28;20034;-67
2022/05/01 04:47:08;;;;;;;1.40;1.30;;;;;;;8.34;100.00;91214.63;5012046;28;20079;-66
2022/05/01 04:49:34;;;;;;;1.27;1.27;;;;;;;8.56;100.00;91223.84;5012044;28;20033;-66
2022/05/01 04:52:00;;;;;;;1.10;1.10;;;;;;;8.69;100.00;91210.66;5012041;28;20473;-66
2022/05/01 04:54:26;;;;;;;1.55;1.45;;;;;;;8.80;100.00;91223.75;5012268;28;20542;-66
2022/05/01 04:59:46;;;;;;;0.90;0.90;;;;;;;9.20;100.00;91223.06;4998732;28;20046;-66
2022/05/01 05:02:11;;;;;;;2.20;1.40;;;;;;;9.44;100.00;91217.56;5011784;28;20036;-66
2022/05/01 05:04:37;;;;;;;1.60;1.50;;;;;;;10.43;100.00;91227.56;5011664;28;20060;-66
2022/05/01 05:07:02;;;;;;;1.67;1.58;;;;;;;11.34;100.00;91234.47;5011768;28;20442;-66
2022/05/01 05:12:12;;;;;;;1.48;1.40;;;;;;;13.37;86.58;91227.81;5011712;28;20119;-66
2022/05/01 05:14:38;;;;;;;1.80;1.60;;;;;;;13.73;78.34;91227.44;5011802;28;20089;-66
2022/05/01 05:17:06;;;;;;;1.33;1.33;;;;;;;14.21;74.65;91221.72;5011727;28;20022;-66
2022/05/01 05:19:34;;;;;;;1.63;1.52;;;;;;;15.13;69.80;91210.22;5011560;28;20026;-66
2022/05/01 05:21:59;;;;;;;1.58;1.50;;;;;;;15.75;67.27;91212.00;5011483;28;20144;-66
2022/05/01 05:24:24;;;;;;;1.83;1.73;;;;;;;16.45;64.58;91223.47;5011453;28;20128;-67
2022/05/01 05:26:50;;;;;;;4.00;2.92;;;;;;;16.89;63.34;91221.00;5011428;28;20046;-66
2022/05/01 05:29:16;;;;;;;1.77;1.67;;;;;;;17.20;62.51;91228.38;5011475;28;20026;-67
2022/05/01 05:31:41;;;;;;;2.47;1.75;;;;;;;18.23;59.81;91223.88;5011360;28;20044;-67
2022/05/01 05:34:07;;;;;;;1.85;1.58;;;;;;;17.56;60.27;91232.88;5011507;28;20022;-67
2022/05/01 05:36:32;;;;;;;1.75;1.65;;;;;;;15.65;65.23;91231.22;4993802;28;20025;-67
2022/05/01 05:38:58;;;;;;;2.47;2.30;;;;;;;15.17;70.03;91228.03;4993549;28;20463;-67
2022/05/01 05:41:23;;;;;;;2.83;2.63;;;;;;;14.72;74.18;91221.75;5011370;28;20030;-65
2022/05/01 05:43:48;;;;;;;2.30;2.10;;;;;;;14.81;76.02;91219.78;5011417;28;20062;-66
2022/05/01 05:46:14;;;;;;;3.00;2.80;;;;;;;14.58;79.04;91222.78;5011338;28;20033;-66
2022/05/01 05:48:39;;;;;;;2.42;2.33;;;;;;;14.51;83.84;91211.78;5011241;28;20052;-66
2022/05/01 05:51:05;;;;;;;2.03;1.92;;;;;;;13.27;92.83;91220.94;5011365;28;20105;-65
2022/05/01 05:53:31;;;;;;;2.25;2.05;;;;;;;13.15;100.00;91215.44;4993640;28;20025;-65
2022/05/01 05:55:56;;;;;;;5.13;2.35;;;;;;;13.80;99.28;91217.03;5011212;28;20401;-65
2022/05/01 05:58:22;;;;;;;2.03;1.90;;;;;;;15.50;84.51;91224.56;5011246;28;20049;-66
2022/05/01 06:00:48;;;;;;;2.15;2.05;;;;;;;18.00;71.35;91220.22;5011146;28;20030;-66
2022/05/01 06:03:13;;;;;;;2.40;2.17;;;;;;;18.69;63.58;91229.59;5011057;28;20030;-66
2022/05/01 06:05:39;;;;;;;3.03;1.80;;;;;;;19.99;60.25;91240.78;5011117;28;20474;-66
2022/05/01 06:08:04;;;;;;;1.58;1.48;;;;;;;21.49;54.65;91243.94;5011280;28;20056;-66
2022/05/01 06:10:33;;;;;;;1.70;1.60;;;;;;;21.03;52.41;91245.19;5011241;28;20076;-65
2022/05/01 06:12:59;;;;;;;1.55;1.45;;;;;;;22.69;49.80;91240.94;5012341;28;20026;-66
2022/05/01 06:15:24;;;;;;;2.28;2.08;;;;;;;22.55;48.06;91248.19;5018439;28;20072;-66
2022/05/01 06:17:52;;;;;;;2.00;1.80;;;;;;;22.92;47.60;91248.16;5017318;28;20076;-65
2022/05/01 06:20:18;;;;;;;1.77;1.67;;;;;;;22.84;46.27;91246.53;5011127;28;20096;-64
2022/05/01 06:22:44;;;;;;;1.77;1.45;;;;;;;19.82;50.67;91243.91;5010470;28;20026;-71
2022/05/01 06:25:09;;;;;;;1.40;1.30;;;;;;;17.60;56.51;91244.50;5021859;28;20533;-64
2022/05/01 06:27:35;;;;;;;1.63;1.27;;;;;;;19.00;55.34;91246.84;5030640;28;20448;-68
2022/05/01 06:30:01;;;;;;;1.50;1.40;;;;;;;18.30;56.71;91236.72;5030314;28;20022;-65
2022/05/01 06:32:27;;;;;;;1.48;1.38;;;;;;;16.16;60.87;91251.31;5030392;28;20052;-67
2022/05/01 06:34:53;;;;;;;1.65;1.55;;;;;;;14.51;72.58;91249.28;5030346;28;20459;-67
2022/05/01 06:37:18;;;;;;;1.42;1.33;;;;;;;16.88;67.60;91252.44;5030474;28;20453;-65
2022/05/01 06:39:43;;;;;;;1.70;1.60;;;;;;;17.32;63.06;91247.97;5029755;28;20063;-67
2022/05/01 06:42:10;;;;;;;2.30;2.10;;;;;;;20.06;57.84;91247.47;5030369;28;20033;-66
2022/05/01 06:44:35;;;;;;;1.52;1.40;;;;;;;22.20;51.67;91257.53;5032026;28;20029;-64
2022/05/01 06:47:02;;;;;;;1.63;1.52;;;;;;;22.83;48.74;91251.16;5033996;28;20090;-65
2022/05/01 06:49:27;;;;;;;1.80;1.70;;;;;;;22.13;49.05;91254.00;5033835;28;20032;-65
2022/05/01 06:51:52;;;;;;;1.83;1.50;;;;;;;23.23;48.03;91247.59;5033841;28;20029;-65
2022/05/01 06:54:18;;;;;;;2.35;2.15;;;;;;;24.23;45.77;91237.19;5033344;28;20032;-69
2022/05/01 06:56:44;;;;;;;2.13;1.67;;;;;;;24.67;44.64;91249.72;5029151;28;20022;-68
2022/05/01 06:59:10;;;;;;;1.58;1.48;;;;;;;24.62;43.67;91259.06;5033474;28;20491;-68
2022/05/01 07:01:36;;;;;;;1.40;1.30;;;;;;;22.90;44.80;91256.66;5033668;28;20057;-65
2022/05/01 07:04:01;;;;;;;1.55;1.45;;;;;;;20.93;48.69;91257.41;5033629;28;20109;-65
2022/05/01 07:06:26;;;;;;;1.38;1.30;;;;;;;20.33;49.90;91249.06;5033472;28;20057;-65
2022/05/01 07:08:52;;;;;;;1.90;1.80;;;;;;;21.29;49.43;91234.38;5032887;28;20026;-65
2022/05/01 07:11:18;;;;;;;1.48;1.38;;;;;;;24.12;46.18;91248.03;5033566;28;20018;-65
2022/05/01 07:13:43;;;;;;;5.07;1.63;;;;;;;26.54;40.03;91257.94;5033462;28;20025;-66
2022/05/01 07:16:09;;;;;;;1.40;1.30;;;;;;;28.33;38.14;91247.75;5033465;28;20029;-67
2022/05/01 07:18:34;;;;;;;1.42;1.33;;;;;;;24.32;40.26;91250.44;5031246;28;20060;-66
2022/05/01 07:21:00;;;;;;;1.55;1.45;;;;;;;26.36;38.35;91257.25;5024605;28;20034;-67
2022/05/01 07:23:27;;;;;;;1.33;1.23;;;;;;;25.78;40.11;91256.69;5021668;28;20021;-70
2022/05/01 07:25:52;;;;;;;1.40;1.30;;;;;;;26.60;37.15;91261.00;4999643;28;20042;-65
2022/05/01 07:28:18;;;;;;;1.50;1.00;;;;;;;25.55;37.50;91254.34;5014205;28;20454;-63
2022/05/01 07:30:43;;;;;;;1.42;1.33;;;;;;;23.17;42.44;91251.03;5050478;28;20032;-64
2022/05/01 07:33:09;;;;;;;1.58;1.42;;;;;;;26.57;37.76;91262.59;5052925;28;20031;-64
2022/05/01 07:35:34;;;;;;;1.35;1.25;;;;;;;25.90;36.64;91248.06;5052921;28;20490;-63
2022/05/01 07:38:00;;;;;;;0.95;0.95;;;;;;;24.78;38.71;91248.56;5039900;28;20025;-66
2022/05/01 07:40:26;;;;;;;1.08;0.98;;;;;;;22.65;41.68;91266.50;5015058;28;20471;-66
2022/05/01 07:42:52;;;;;;;1.15;0.90;;;;;;;24.41;39.95;91267.16;5032869;28;20021;-64
2022/05/01 07:45:18;;;;;;;1.30;1.20;;;;;;;25.01;39.25;91263.75;5032624;28;20022;-64
2022/05/01 07:47:43;;;;;;;1.42;1.33;;;;;;;26.00;39.94;91267.50;5032455;28;20399;-63
2022/05/01 07:50:09;;;;;;;1.20;1.10;;;;;;;28.64;34.81;91273.13;5032384;28;20051;-64
2022/05/01 07:52:35;;;;;;;1.05;1.00;;;;;;;26.77;35.08;91268.31;5032147;28;20453;-63
2022/05/01 07:55:04;;;;;;;0.90;0.90;;;;;;;24.72;38.16;91263.72;5032254;28;20049;-63
2022/05/01 07:57:30;;;;;;;1.48;1.38;;;;;;;24.81;38.16;91266.06;5032086;28;20022;-65
2022/05/01 07:59:56;;;;;;;2.45;1.80;;;;;;;24.67;38.93;91253.22;5032403;28;20029;-68
2022/05/01 08:02:22;;;;;;;7.47;6.13;;;;;;;26.03;38.40;91253.06;5032545;28;20032;-67
2022/05/01 08:04:48;;;;;;;1.38;1.27;;;;;;;27.20;36.72;91246.16;5032458;28;20034;-65
2022/05/01 08:07:15;;;;;;;1.45;1.10;;;;;;;28.72;34.80;91246.44;5032012;28;20028;-63
2022/05/01 08:09:40;;;;;;;1.23;1.10;;;;;;;27.50;35.13;91251.75;5032200;28;20045;-63
2022/05/01 08:12:07;;;;;;;0.80;0.80;;;;;;;26.21;37.00;91251.06;5032153;28;20056;-64
2022/05/01 08:14:32;;;;;;;1.23;1.13;;;;;;;26.34;36.25;91254.88;5011700;28;20510;-65
2022/05/01 08:16:58;;;;;;;1.27;1.10;;;;;;;28.05;35.23;91246.09;5022913;28;20026;-65
2022/05/01 08:22:08;;;;;;;1.30;1.20;;;;;;;26.22;35.70;91258.06;5020920;28;20538;-63
2022/05/01 08:24:34;;;;;;;1.25;1.05;;;;;;;24.87;37.71;91242.72;5016756;28;20037;-63
2022/05/01 08:27:07;;;;;;;1.00;1.00;;;;;;;25.67;37.36;91239.53;5025926;28;20030;-63
2022/05/01 08:29:38;;;;;;;1.92;1.83;;;;;;;22.47;37.92;91241.16;5021186;28;20471;-63
2022/05/01 08:32:04;;;;;;;2.53;1.70;;;;;;;23.06;38.61;91237.41;5012261;28;20038;-63
2022/05/01 08:34:30;;;;;;;1.00;1.00;;;;;;;21.52;39.69;91234.28;5012178;28;20030;-63
2022/05/01 08:36:55;;;;;;;1.00;1.00;;;;;;;22.18;38.62;91223.84;5011741;28;20389;-63
2022/05/01 08:39:21;;;;;;;0.80;0.80;;;;;;;22.33;36.72;91220.88;5016563;28;20162;-64
2022/05/01 08:41:47;;;;;;;1.25;1.05;;;;;;;23.38;36.57;91220.53;5023422;28;20148;-64
2022/05/01 08:44:14;;;;;;;1.05;1.05;;;;;;;24.93;35.41;91213.97;5024712;28;20079;-63
2022/05/01 08:46:56;;;;;;;0.85;0.85;;;;;;;25.97;31.96;91223.50;5019902;28;20033;-66
2022/05/01 08:49:22;;;;;;;0.80;0.80;;;;;;;23.63;30.17;91226.09;5015453;28;20025;-64
2022/05/01 08:51:50;;;;;;;0.90;0.90;;;;;;;23.47;33.95;91216.28;5026798;28;21136;-64
2022/05/01 08:54:16;;;;;;;0.80;0.80;;;;;;;26.19;30.72;91220.66;5015431;28;20021;-61
2022/05/01 08:56:44;;;;;;;0.80;0.80;;;;;;;24.77;33.52;91217.09;5019784;28;20542;-64
2022/05/01 08:59:14;;;;;;;0.80;0.80;;;;;;;23.25;36.43;91209.97;5024475;28;20029;-66
2022/05/01 09:01:41;;;;;;;0.90;0.90;;;;;;;21.68;38.59;91215.94;5021752;28;20076;-64
2022/05/01 09:04:08;;;;;;;1.30;0.98;;;;;;;21.61;36.30;91223.16;5013694;28;20026;-62
2022/05/01 09:06:38;;;;;;;1.13;1.02;;;;;;;20.30;38.51;91212.75;5019628;28;20025;-64
2022/05/01 09:09:11;;;;;;;0.90;0.90;;;;;;;21.06;37.31;91217.41;5019803;28;20104;-64
2022/05/01 09:14:26;;;;;;;0.80;0.80;;;;;;;21.58;37.47;91203.03;5028015;28;20120;-64
2022/05/01 09:17:17;;;;;;;3.33;1.58;;;;;;;23.65;36.29;91193.91;5024775;28;20036;-63
2022/05/01 09:19:45;;;;;;;0.68;0.68;;;;;;;25.29;35.10;91197.63;5020735;28;20488;-64
2022/05/01 09:22:12;;;;;;;0.80;0.80;;;;;;;25.46;33.66;91201.47;5018702;28;20025;-64
2022/05/01 09:24:38;;;;;;;1.23;1.20;;;;;;;26.20;32.45;91201.19;5019360;28;20053;-64
2022/05/01 09:27:04;;;;;;;0.80;0.80;;;;;;;24.28;33.31;91189.78;5020996;28;20021;-64
2022/05/01 09:29:32;;;;;;;0.90;0.90;;;;;;;23.92;33.75;91180.78;5001073;28;20029;-63
2022/05/01 09:32:00;;;;;;;0.73;0.73;;;;;;;24.09;34.06;91182.78;5031940;28;20453;-63
2022/05/01 09:34:28;;;;;;;1.10;1.02;;;;;;;22.63;33.91;91184.72;5020707;28;20403;-63
2022/05/01 09:36:55;;;;;;;1.23;0.90;;;;;;;23.58;34.98;91181.84;5019220;28;20026;-65
2022/05/01 09:39:28;;;;;;;0.98;0.90;;;;;;;25.47;33.93;91183.94;5017191;28;20033;-64
2022/05/01 09:42:11;;;;;;;0.95;0.82;;;;;;;25.53;32.29;91185.88;5017187;28;20080;-64
2022/05/01 09:44:36;;;;;;;0.90;0.90;;;;;;;26.64;29.88;91179.88;5004181;28;20415;-64
2022/05/01 09:47:02;;;;;;;1.23;1.13;;;;;;;27.33;28.78;91181.66;5020609;28;20039;-64
2022/05/01 09:49:27;;;;;;;0.70;0.70;;;;;;;26.60;30.20;91179.91;5018480;28;20025;-63
2022/05/01 09:51:57;;;;;;;0.80;0.80;;;;;;;27.24;30.24;91171.19;5019197;28;20017;-64
2022/05/01 09:54:24;;;;;;;0.60;0.60;;;;;;;25.46;30.66;91168.78;4999192;28;20029;-64
2022/05/01 09:56:54;;;;;;;1.35;1.25;;;;;;;25.15;31.86;91163.03;5014444;28;20034;-64
2022/05/01 09:59:22;;;;;;;1.30;1.20;;;;;;;26.63;31.65;91156.50;5015732;28;20065;-64
2022/05/01 10:01:54;;;;;;;0.85;0.85;;;;;;;26.89;30.69;91164.09;5024759;28;20568;-63
2022/05/01 10:04:22;;;;;;;1.05;0.90;;;;;;;26.29;31.20;91170.75;5020453;28;20029;-63
2022/05/01 10:06:51;;;;;;;0.80;0.80;;;;;;;25.20;32.01;91165.34;5018610;28;20792;-62
2022/05/01 10:09:17;;;;;;;1.08;1.00;;;;;;;25.91;32.37;91161.63;5001227;28;20010;-65
2022/05/01 10:11:44;;;;;;;0.93;0.93;;;;;;;24.65;33.01;91141.28;5020457;28;20029;-63
2022/05/01 10:14:10;;;;;;;0.70;0.70;;;;;;;22.12;34.80;91152.94;5019115;28;20431;-65
2022/05/01 10:16:36;;;;;;;0.98;0.90;;;;;;;21.06;37.26;91160.59;5018947;28;20036;-65
2022/05/01 10:19:02;;;;;;;0.80;0.80;;;;;;;23.01;36.10;91154.38;5019193;28;20026;-65
2022/05/01 10:21:28;;;;;;;1.35;1.25;;;;;;;25.38;32.40;91157.88;5033096;28;20033;-67
2022/05/01 10:23:56;;;;;;;0.70;0.70;;;;;;;24.33;32.98;91140.53;5026125;28;20029;-65
2022/05/01 10:26:30;;;;;;;0.73;0.70;;;;;;;25.50;33.00;91158.63;5022497;28;20046;-66
2022/05/01 10:29:22;;;;;;;0.80;0.80;;;;;;;25.42;31.89;91148.94;5022043;28;20120;-65
2022/05/01 10:32:21;;;;;;;1.10;1.00;;;;;;;26.95;31.02;91142.56;5018367;28;20172;-66
2022/05/01 10:35:02;;;;;;;0.80;0.80;;;;;;;26.43;32.43;91142.63;5023709;28;20092;-67
2022/05/01 10:37:55;;;;;;;1.30;0.90;;;;;;;26.84;31.60;91138.00;5016663;28;20041;-67
2022/05/01 10:40:21;;;;;;;0.80;0.80;;;;;;;25.72;32.37;91132.91;5014383;28;20061;-65
2022/05/01 10:42:48;;;;;;;1.15;1.05;;;;;;;24.59;33.42;91123.78;4996499;28;20045;-65
2022/05/01 10:45:22;;;;;;;0.70;0.70;;;;;;;23.12;34.46;91126.53;5014783;28;20104;-66
2022/05/01 10:47:52;;;;;;;1.60;1.50;;;;;;;24.46;31.67;91125.38;5030072;28;20033;-72
2022/05/01 10:50:21;;;;;;;1.17;1.08;;;;;;;24.89;32.65;91117.94;5033604;28;20045;-71
2022/05/01 10:53:16;;;;;;;1.02;1.00;;;;;;;24.42;33.73;91130.00;5034001;28;20511;-69
2022/05/01 10:55:42;;;;;;;1.17;1.00;;;;;;;26.50;32.81;91132.41;5033568;28;20506;-65
2022/05/01 10:58:21;;;;;;;1.70;1.60;;;;;;;26.93;31.37;91134.78;5031465;28;20038;-65
2022/05/01 11:00:48;;;;;;;0.90;0.90;;;;;;;28.10;28.95;91130.00;5013713;28;20033;-66
2022/05/01 11:03:32;;;;;;;0.73;0.73;;;;;;;28.66;28.04;91116.66;5013587;28;20116;-66
2022/05/01 11:06:04;;;;;;;0.90;0.90;;;;;;;26.77;29.20;91118.94;5013979;28;20040;-65
2022/05/01 11:08:38;;;;;;;0.70;0.70;;;;;;;26.66;30.23;91114.75;5013964;28;20535;-65
2022/05/01 11:11:10;;;;;;;0.80;0.80;;;;;;;26.77;30.88;91109.97;5013958;28;20030;-65
2022/05/01 11:13:38;;;;;;;0.82;0.82;;;;;;;26.40;31.13;91106.00;5014258;28;20037;-66
2022/05/01 11:16:08;;;;;;;0.90;0.90;;;;;;;26.09;30.46;91107.75;5013750;28;20088;-65
2022/05/01 11:18:35;;;;;;;0.98;0.95;;;;;;;24.81;31.95;91108.22;5014903;28;20037;-66
2022/05/01 11:21:19;;;;;;;3.05;1.65;;;;;;;24.73;31.26;91112.13;5047587;28;20047;-66
2022/05/01 11:23:45;;;;;;;0.98;0.80;;;;;;;23.18;32.88;91106.00;5025475;28;20028;-66
2022/05/01 11:26:17;;;;;;;0.70;0.70;;;;;;;21.62;33.72;91113.72;5053322;28;20075;-66
2022/05/01 11:28:48;;;;;;;0.82;0.82;;;;;;;19.07;38.81;91101.38;5045238;28;20049;-66
2022/05/01 11:31:38;;;;;;;0.80;0.80;;;;;;;21.31;36.00;91099.50;5031379;28;20037;-63
2022/05/01 11:34:16;;;;;;;0.80;0.80;;;;;;;22.14;33.94;91101.88;5032349;28;20033;-63
2022/05/01 11:36:53;;;;;;;0.90;0.70;;;;;;;22.26;35.16;91096.16;5032582;28;20508;-63
2022/05/01 11:39:44;;;;;;;0.80;0.80;;;;;;;20.57;35.32;91094.69;5032845;28;20044;-63
2022/05/01 11:42:29;;;;;;;1.05;0.95;;;;;;;21.95;33.91;91088.53;5032993;28;20517;-63
2022/05/01 11:44:56;;;;;;;0.80;0.77;;;;;;;24.65;30.89;91094.28;5033215;28;20045;-63
2022/05/01 11:47:23;;;;;;;0.80;0.80;;;;;;;23.87;32.19;91081.41;5033269;28;20040;-63
2022/05/01 11:49:50;;;;;;;0.73;0.73;;;;;;;22.34;32.62;91088.84;5032592;28;20491;-64
2022/05/01 11:52:16;;;;;;;0.77;0.77;;;;;;;21.29;34.26;91082.81;5033022;28;20025;-63
2022/05/01 11:54:56;;;;;;;3.67;1.77;;;;;;;21.40;34.27;91097.25;5032916;28;20044;-63
2022/05/01 12:03:00;;;;;;;0.75;0.75;;;;;;;26.21;29.12;91076.53;5032743;28;20083;-63
2022/05/01 12:05:29;;;;;;;0.60;0.60;;;;;;;23.58;31.69;91073.22;5032684;28;20518;-63
2022/05/01 12:07:56;;;;;;;0.90;0.90;;;;;;;22.21;33.08;91069.38;5032403;28;20068;-63